sensor_id;sensor_type;location;lat;lon;timestamp;P1;durP1;ratioP1;P2;durP2;ratioP2
39356;SDS011;25077;50.302;18.996;2022-07-29T00:01:35;7.70;;;3.37;;
39356;SDS011;25077;50.302;18.996;2022-07-29T00:04:37;9.73;;;3.20;;
39356;SDS011;25077;50.302;18.996;2022-07-29T00:07:39;9.93;;;2.83;;
39356;SDS011;25077;50.302;18.996;2022-07-29T00:10:41;8.73;;;3.37;;
39356;SDS011;25077;50.302;18.996;2022-07-29T00:13:45;5.80;;;3.27;;
39356;SDS011;25077;50.302;18.996;2022-07-29T00:16:47;8.47;;;3.03;;
39356;SDS011;25077;50.302;18.996;2022-07-29T00:19:50;7.37;;;3.20;;
39356;SDS011;25077;50.302;18.996;2022-07-29T00:22:52;9.90;;;2.70;;
39356;SDS011;25077;50.302;18.996;2022-07-29T00:25:54;3.83;;;2.10;;
39356;SDS011;25077;50.302;18.996;2022-07-29T00:28:57;6.80;;;2.40;;
39356;SDS011;25077;50.302;18.996;2022-07-29T00:31:59;4.97;;;2.40;;
39356;SDS011;25077;50.302;18.996;2022-07-29T00:35:01;6.40;;;2.10;;
39356;SDS011;25077;50.302;18.996;2022-07-29T00:38:21;6.47;;;2.07;;
39356;SDS011;25077;50.302;18.996;2022-07-29T00:41:23;4.43;;;2.50;;
39356;SDS011;25077;50.302;18.996;2022-07-29T00:44:26;5.93;;;2.30;;
39356;SDS011;25077;50.302;18.996;2022-07-29T00:47:28;12.80;;;2.63;;
39356;SDS011;25077;50.302;18.996;2022-07-29T00:50:30;5.77;;;2.20;;
39356;SDS011;25077;50.302;18.996;2022-07-29T00:53:33;4.93;;;2.40;;
39356;SDS011;25077;50.302;18.996;2022-07-29T00:56:37;5.50;;;2.40;;
39356;SDS011;25077;50.302;18.996;2022-07-29T00:59:40;5.90;;;2.17;;
39356;SDS011;25077;50.302;18.996;2022-07-29T01:02:42;7.53;;;2.40;;
39356;SDS011;25077;50.302;18.996;2022-07-29T01:05:45;5.03;;;2.43;;
39356;SDS011;25077;50.302;18.996;2022-07-29T01:08:48;3.80;;;2.07;;
39356;SDS011;25077;50.302;18.996;2022-07-29T01:11:51;6.53;;;2.10;;
39356;SDS011;25077;50.302;18.996;2022-07-29T01:14:55;7.70;;;2.33;;
39356;SDS011;25077;50.302;18.996;2022-07-29T01:18:00;3.53;;;2.00;;
39356;SDS011;25077;50.302;18.996;2022-07-29T01:21:15;3.00;;;2.03;;
39356;SDS011;25077;50.302;18.996;2022-07-29T01:24:40;3.83;;;1.97;;
39356;SDS011;25077;50.302;18.996;2022-07-29T01:28:01;5.53;;;2.07;;
39356;SDS011;25077;50.302;18.996;2022-07-29T01:31:27;9.13;;;2.33;;
39356;SDS011;25077;50.302;18.996;2022-07-29T01:34:35;5.97;;;1.90;;
39356;SDS011;25077;50.302;18.996;2022-07-29T01:37:43;5.20;;;1.57;;
39356;SDS011;25077;50.302;18.996;2022-07-29T01:40:51;2.50;;;1.70;;
39356;SDS011;25077;50.302;18.996;2022-07-29T01:43:56;4.80;;;1.70;;
39356;SDS011;25077;50.302;18.996;2022-07-29T01:47:04;2.60;;;1.70;;
39356;SDS011;25077;50.302;18.996;2022-07-29T01:50:14;6.90;;;1.70;;
39356;SDS011;25077;50.302;18.996;2022-07-29T01:53:21;4.37;;;2.10;;
39356;SDS011;25077;50.302;18.996;2022-07-29T01:56:27;3.20;;;1.77;;
39356;SDS011;25077;50.302;18.996;2022-07-29T01:59:33;4.03;;;1.70;;
39356;SDS011;25077;50.302;18.996;2022-07-29T02:02:38;4.17;;;1.60;;
39356;SDS011;25077;50.302;18.996;2022-07-29T02:05:44;2.63;;;1.70;;
39356;SDS011;25077;50.302;18.996;2022-07-29T02:08:48;4.20;;;1.90;;
39356;SDS011;25077;50.302;18.996;2022-07-29T02:11:53;4.83;;;1.80;;
39356;SDS011;25077;50.302;18.996;2022-07-29T02:14:56;3.40;;;1.70;;
39356;SDS011;25077;50.302;18.996;2022-07-29T02:18:05;5.17;;;1.93;;
39356;SDS011;25077;50.302;18.996;2022-07-29T02:21:09;4.23;;;1.57;;
39356;SDS011;25077;50.302;18.996;2022-07-29T02:24:12;6.70;;;1.83;;
39356;SDS011;25077;50.302;18.996;2022-07-29T02:27:15;5.07;;;1.60;;
39356;SDS011;25077;50.302;18.996;2022-07-29T02:30:20;5.73;;;1.80;;
39356;SDS011;25077;50.302;18.996;2022-07-29T02:33:25;2.40;;;1.60;;
39356;SDS011;25077;50.302;18.996;2022-07-29T02:36:28;9.10;;;1.77;;
39356;SDS011;25077;50.302;18.996;2022-07-29T02:39:32;4.87;;;1.50;;
39356;SDS011;25077;50.302;18.996;2022-07-29T02:42:36;3.20;;;1.80;;
39356;SDS011;25077;50.302;18.996;2022-07-29T02:45:40;4.77;;;1.70;;
39356;SDS011;25077;50.302;18.996;2022-07-29T02:48:47;4.97;;;1.83;;
39356;SDS011;25077;50.302;18.996;2022-07-29T02:51:54;5.63;;;1.80;;
39356;SDS011;25077;50.302;18.996;2022-07-29T02:55:00;8.20;;;1.60;;
39356;SDS011;25077;50.302;18.996;2022-07-29T02:58:05;5.77;;;2.00;;
39356;SDS011;25077;50.302;18.996;2022-07-29T03:01:15;3.97;;;1.60;;
39356;SDS011;25077;50.302;18.996;2022-07-29T03:04:23;3.30;;;1.60;;
39356;SDS011;25077;50.302;18.996;2022-07-29T03:07:28;4.13;;;1.70;;
39356;SDS011;25077;50.302;18.996;2022-07-29T03:10:31;2.73;;;1.63;;
39356;SDS011;25077;50.302;18.996;2022-07-29T03:13:34;4.30;;;1.70;;
39356;SDS011;25077;50.302;18.996;2022-07-29T03:16:37;3.10;;;1.73;;
39356;SDS011;25077;50.302;18.996;2022-07-29T03:19:40;4.23;;;2.10;;
39356;SDS011;25077;50.302;18.996;2022-07-29T03:22:44;5.47;;;2.10;;
39356;SDS011;25077;50.302;18.996;2022-07-29T03:25:47;9.23;;;2.20;;
39356;SDS011;25077;50.302;18.996;2022-07-29T03:28:49;5.30;;;1.90;;
39356;SDS011;25077;50.302;18.996;2022-07-29T03:31:51;6.63;;;1.90;;
39356;SDS011;25077;50.302;18.996;2022-07-29T03:34:54;5.33;;;1.70;;
39356;SDS011;25077;50.302;18.996;2022-07-29T03:37:56;4.87;;;1.83;;
39356;SDS011;25077;50.302;18.996;2022-07-29T03:40:58;2.93;;;1.40;;
39356;SDS011;25077;50.302;18.996;2022-07-29T03:44:03;8.40;;;1.90;;
39356;SDS011;25077;50.302;18.996;2022-07-29T03:47:07;3.43;;;1.50;;
39356;SDS011;25077;50.302;18.996;2022-07-29T03:50:12;2.87;;;1.50;;
39356;SDS011;25077;50.302;18.996;2022-07-29T03:53:16;3.73;;;1.73;;
39356;SDS011;25077;50.302;18.996;2022-07-29T03:56:19;3.87;;;1.90;;
39356;SDS011;25077;50.302;18.996;2022-07-29T03:59:23;5.27;;;1.90;;
39356;SDS011;25077;50.302;18.996;2022-07-29T04:02:25;4.03;;;1.83;;
39356;SDS011;25077;50.302;18.996;2022-07-29T04:05:29;7.17;;;1.90;;
39356;SDS011;25077;50.302;18.996;2022-07-29T04:08:31;5.83;;;1.90;;
39356;SDS011;25077;50.302;18.996;2022-07-29T04:11:33;6.87;;;1.93;;
39356;SDS011;25077;50.302;18.996;2022-07-29T04:14:35;4.97;;;1.70;;
39356;SDS011;25077;50.302;18.996;2022-07-29T04:17:37;2.93;;;1.80;;
39356;SDS011;25077;50.302;18.996;2022-07-29T04:20:41;3.80;;;1.70;;
39356;SDS011;25077;50.302;18.996;2022-07-29T04:23:43;3.77;;;1.70;;
39356;SDS011;25077;50.302;18.996;2022-07-29T04:26:45;4.03;;;1.70;;
39356;SDS011;25077;50.302;18.996;2022-07-29T04:29:47;9.30;;;2.40;;
39356;SDS011;25077;50.302;18.996;2022-07-29T04:32:49;4.93;;;1.90;;
39356;SDS011;25077;50.302;18.996;2022-07-29T04:35:53;1.83;;;1.37;;
39356;SDS011;25077;50.302;18.996;2022-07-29T04:38:54;5.93;;;1.87;;
39356;SDS011;25077;50.302;18.996;2022-07-29T04:41:57;3.20;;;1.90;;
39356;SDS011;25077;50.302;18.996;2022-07-29T04:44:59;8.67;;;1.70;;
39356;SDS011;25077;50.302;18.996;2022-07-29T04:48:00;5.60;;;1.50;;
39356;SDS011;25077;50.302;18.996;2022-07-29T04:51:04;4.47;;;1.80;;
39356;SDS011;25077;50.302;18.996;2022-07-29T04:54:06;6.77;;;1.80;;
39356;SDS011;25077;50.302;18.996;2022-07-29T04:57:08;2.90;;;1.80;;
39356;SDS011;25077;50.302;18.996;2022-07-29T05:00:10;9.13;;;1.60;;
39356;SDS011;25077;50.302;18.996;2022-07-29T05:03:13;2.40;;;1.53;;
39356;SDS011;25077;50.302;18.996;2022-07-29T05:06:16;7.57;;;1.77;;
39356;SDS011;25077;50.302;18.996;2022-07-29T05:09:18;6.27;;;1.50;;
39356;SDS011;25077;50.302;18.996;2022-07-29T05:12:20;5.13;;;1.67;;
39356;SDS011;25077;50.302;18.996;2022-07-29T05:15:22;2.80;;;1.60;;
39356;SDS011;25077;50.302;18.996;2022-07-29T05:18:24;10.13;;;2.07;;
39356;SDS011;25077;50.302;18.996;2022-07-29T05:21:27;7.57;;;2.10;;
39356;SDS011;25077;50.302;18.996;2022-07-29T05:24:29;3.93;;;1.80;;
39356;SDS011;25077;50.302;18.996;2022-07-29T05:27:31;5.47;;;2.37;;
39356;SDS011;25077;50.302;18.996;2022-07-29T05:30:33;8.73;;;1.87;;
39356;SDS011;25077;50.302;18.996;2022-07-29T05:33:35;7.33;;;1.83;;
39356;SDS011;25077;50.302;18.996;2022-07-29T05:36:38;3.93;;;1.60;;
39356;SDS011;25077;50.302;18.996;2022-07-29T05:39:40;6.27;;;1.90;;
39356;SDS011;25077;50.302;18.996;2022-07-29T05:42:42;5.17;;;1.93;;
39356;SDS011;25077;50.302;18.996;2022-07-29T05:45:44;8.13;;;2.07;;
39356;SDS011;25077;50.302;18.996;2022-07-29T05:48:46;5.40;;;1.90;;
39356;SDS011;25077;50.302;18.996;2022-07-29T05:51:49;4.93;;;1.90;;
39356;SDS011;25077;50.302;18.996;2022-07-29T05:54:51;6.30;;;2.00;;
39356;SDS011;25077;50.302;18.996;2022-07-29T05:57:53;9.43;;;2.03;;
39356;SDS011;25077;50.302;18.996;2022-07-29T06:00:55;11.07;;;2.03;;
39356;SDS011;25077;50.302;18.996;2022-07-29T06:03:59;5.47;;;2.30;;
39356;SDS011;25077;50.302;18.996;2022-07-29T06:07:03;9.23;;;2.53;;
39356;SDS011;25077;50.302;18.996;2022-07-29T06:10:06;5.27;;;1.80;;
39356;SDS011;25077;50.302;18.996;2022-07-29T06:13:09;6.20;;;2.03;;
39356;SDS011;25077;50.302;18.996;2022-07-29T06:16:11;6.33;;;2.13;;
39356;SDS011;25077;50.302;18.996;2022-07-29T06:19:13;12.60;;;2.20;;
39356;SDS011;25077;50.302;18.996;2022-07-29T06:22:16;10.87;;;1.97;;
39356;SDS011;25077;50.302;18.996;2022-07-29T06:25:18;8.23;;;2.17;;
39356;SDS011;25077;50.302;18.996;2022-07-29T06:28:20;5.37;;;1.80;;
39356;SDS011;25077;50.302;18.996;2022-07-29T06:31:21;6.33;;;2.40;;
39356;SDS011;25077;50.302;18.996;2022-07-29T06:34:23;3.07;;;1.73;;
39356;SDS011;25077;50.302;18.996;2022-07-29T06:37:27;5.70;;;1.97;;
39356;SDS011;25077;50.302;18.996;2022-07-29T06:40:29;5.77;;;1.77;;
39356;SDS011;25077;50.302;18.996;2022-07-29T06:43:49;5.33;;;1.70;;
39356;SDS011;25077;50.302;18.996;2022-07-29T06:46:51;6.03;;;2.27;;
39356;SDS011;25077;50.302;18.996;2022-07-29T06:49:54;3.60;;;1.80;;
39356;SDS011;25077;50.302;18.996;2022-07-29T06:52:58;4.37;;;2.00;;
39356;SDS011;25077;50.302;18.996;2022-07-29T06:56:00;4.50;;;1.70;;
39356;SDS011;25077;50.302;18.996;2022-07-29T06:59:02;4.60;;;2.27;;
39356;SDS011;25077;50.302;18.996;2022-07-29T07:02:04;7.33;;;1.87;;
39356;SDS011;25077;50.302;18.996;2022-07-29T07:05:08;5.97;;;1.70;;
39356;SDS011;25077;50.302;18.996;2022-07-29T07:08:11;5.20;;;1.93;;
39356;SDS011;25077;50.302;18.996;2022-07-29T07:11:14;6.57;;;1.93;;
39356;SDS011;25077;50.302;18.996;2022-07-29T07:14:16;2.77;;;1.70;;
39356;SDS011;25077;50.302;18.996;2022-07-29T07:17:18;6.50;;;2.03;;
39356;SDS011;25077;50.302;18.996;2022-07-29T07:20:20;7.68;;;1.98;;
39356;SDS011;25077;50.302;18.996;2022-07-29T07:23:24;9.35;;;2.10;;
39356;SDS011;25077;50.302;18.996;2022-07-29T07:26:26;10.05;;;2.30;;
39356;SDS011;25077;50.302;18.996;2022-07-29T07:29:28;7.50;;;1.92;;
39356;SDS011;25077;50.302;18.996;2022-07-29T07:32:30;5.97;;;2.17;;
39356;SDS011;25077;50.302;18.996;2022-07-29T07:35:32;7.30;;;2.10;;
39356;SDS011;25077;50.302;18.996;2022-07-29T07:38:38;4.13;;;1.90;;
39356;SDS011;25077;50.302;18.996;2022-07-29T07:41:40;4.95;;;1.77;;
39356;SDS011;25077;50.302;18.996;2022-07-29T07:44:42;9.02;;;1.85;;
39356;SDS011;25077;50.302;18.996;2022-07-29T07:47:46;7.85;;;1.85;;
39356;SDS011;25077;50.302;18.996;2022-07-29T07:50:47;8.50;;;1.83;;
39356;SDS011;25077;50.302;18.996;2022-07-29T07:53:52;4.97;;;2.10;;
39356;SDS011;25077;50.302;18.996;2022-07-29T07:56:54;6.63;;;2.00;;
39356;SDS011;25077;50.302;18.996;2022-07-29T07:59:56;10.32;;;1.67;;
39356;SDS011;25077;50.302;18.996;2022-07-29T08:02:58;4.35;;;2.00;;
39356;SDS011;25077;50.302;18.996;2022-07-29T08:06:00;5.55;;;2.47;;
39356;SDS011;25077;50.302;18.996;2022-07-29T08:09:03;2.88;;;1.70;;
39356;SDS011;25077;50.302;18.996;2022-07-29T08:12:05;9.32;;;1.92;;
39356;SDS011;25077;50.302;18.996;2022-07-29T08:15:08;8.80;;;2.08;;
39356;SDS011;25077;50.302;18.996;2022-07-29T08:18:10;8.02;;;1.90;;
39356;SDS011;25077;50.302;18.996;2022-07-29T08:21:12;4.10;;;1.63;;
39356;SDS011;25077;50.302;18.996;2022-07-29T08:24:16;12.18;;;2.08;;
39356;SDS011;25077;50.302;18.996;2022-07-29T08:27:36;3.03;;;1.90;;
39356;SDS011;25077;50.302;18.996;2022-07-29T08:30:38;4.25;;;1.50;;
39356;SDS011;25077;50.302;18.996;2022-07-29T08:33:40;5.65;;;1.77;;
39356;SDS011;25077;50.302;18.996;2022-07-29T08:36:42;6.78;;;2.05;;
39356;SDS011;25077;50.302;18.996;2022-07-29T08:39:45;3.13;;;1.80;;
39356;SDS011;25077;50.302;18.996;2022-07-29T08:42:47;3.78;;;1.70;;
39356;SDS011;25077;50.302;18.996;2022-07-29T08:45:49;7.32;;;2.00;;
39356;SDS011;25077;50.302;18.996;2022-07-29T08:48:52;5.75;;;1.95;;
39356;SDS011;25077;50.302;18.996;2022-07-29T08:51:55;2.53;;;1.80;;
39356;SDS011;25077;50.302;18.996;2022-07-29T08:55:00;3.47;;;2.20;;
39356;SDS011;25077;50.302;18.996;2022-07-29T08:58:03;6.05;;;1.70;;
39356;SDS011;25077;50.302;18.996;2022-07-29T09:01:06;8.07;;;1.80;;
39356;SDS011;25077;50.302;18.996;2022-07-29T09:04:11;3.70;;;2.00;;
39356;SDS011;25077;50.302;18.996;2022-07-29T09:07:15;5.22;;;1.90;;
39356;SDS011;25077;50.302;18.996;2022-07-29T09:10:19;7.68;;;2.10;;
39356;SDS011;25077;50.302;18.996;2022-07-29T09:13:21;5.57;;;2.08;;
39356;SDS011;25077;50.302;18.996;2022-07-29T09:16:23;5.53;;;1.67;;
39356;SDS011;25077;50.302;18.996;2022-07-29T09:19:26;5.78;;;1.88;;
39356;SDS011;25077;50.302;18.996;2022-07-29T09:22:29;10.73;;;2.35;;
39356;SDS011;25077;50.302;18.996;2022-07-29T09:25:35;5.72;;;2.00;;
39356;SDS011;25077;50.302;18.996;2022-07-29T09:28:39;4.07;;;1.95;;
39356;SDS011;25077;50.302;18.996;2022-07-29T09:31:43;7.80;;;2.33;;
39356;SDS011;25077;50.302;18.996;2022-07-29T09:34:49;6.68;;;2.10;;
39356;SDS011;25077;50.302;18.996;2022-07-29T09:37:51;7.13;;;1.75;;
39356;SDS011;25077;50.302;18.996;2022-07-29T09:40:57;6.57;;;1.80;;
39356;SDS011;25077;50.302;18.996;2022-07-29T09:43:59;5.90;;;1.90;;
39356;SDS011;25077;50.302;18.996;2022-07-29T09:47:02;4.93;;;1.83;;
39356;SDS011;25077;50.302;18.996;2022-07-29T09:50:07;5.10;;;1.80;;
39356;SDS011;25077;50.302;18.996;2022-07-29T09:53:09;7.47;;;2.30;;
39356;SDS011;25077;50.302;18.996;2022-07-29T09:56:13;8.27;;;2.20;;
39356;SDS011;25077;50.302;18.996;2022-07-29T09:59:15;5.60;;;1.70;;
39356;SDS011;25077;50.302;18.996;2022-07-29T10:02:17;5.60;;;2.17;;
39356;SDS011;25077;50.302;18.996;2022-07-29T10:05:20;6.47;;;1.80;;
39356;SDS011;25077;50.302;18.996;2022-07-29T10:08:24;3.53;;;1.77;;
39356;SDS011;25077;50.302;18.996;2022-07-29T10:11:28;5.22;;;1.88;;
39356;SDS011;25077;50.302;18.996;2022-07-29T10:14:30;8.30;;;1.80;;
39356;SDS011;25077;50.302;18.996;2022-07-29T10:17:33;10.80;;;2.63;;
39356;SDS011;25077;50.302;18.996;2022-07-29T10:20:35;4.43;;;1.95;;
39356;SDS011;25077;50.302;18.996;2022-07-29T10:23:38;2.70;;;1.65;;
39356;SDS011;25077;50.302;18.996;2022-07-29T10:26:42;6.07;;;2.33;;
39356;SDS011;25077;50.302;18.996;2022-07-29T10:29:46;7.43;;;2.25;;
39356;SDS011;25077;50.302;18.996;2022-07-29T10:32:59;13.65;;;2.20;;
39356;SDS011;25077;50.302;18.996;2022-07-29T10:36:19;4.03;;;1.90;;
39356;SDS011;25077;50.302;18.996;2022-07-29T10:39:32;4.78;;;2.13;;
39356;SDS011;25077;50.302;18.996;2022-07-29T10:42:47;5.43;;;1.95;;
39356;SDS011;25077;50.302;18.996;2022-07-29T10:45:56;6.75;;;1.83;;
39356;SDS011;25077;50.302;18.996;2022-07-29T10:49:04;5.20;;;2.10;;
39356;SDS011;25077;50.302;18.996;2022-07-29T10:52:07;7.65;;;1.83;;
39356;SDS011;25077;50.302;18.996;2022-07-29T10:55:14;8.93;;;2.33;;
39356;SDS011;25077;50.302;18.996;2022-07-29T10:58:35;4.18;;;1.90;;
39356;SDS011;25077;50.302;18.996;2022-07-29T11:01:36;3.20;;;1.67;;
39356;SDS011;25077;50.302;18.996;2022-07-29T11:08:16;3.13;;;1.85;;
39356;SDS011;25077;50.302;18.996;2022-07-29T11:11:31;5.00;;;1.98;;
39356;SDS011;25077;50.302;18.996;2022-07-29T11:18:04;3.67;;;2.30;;
39356;SDS011;25077;50.302;18.996;2022-07-29T11:21:16;6.22;;;2.08;;
39356;SDS011;25077;50.302;18.996;2022-07-29T11:24:37;6.50;;;1.83;;
39356;SDS011;25077;50.302;18.996;2022-07-29T11:27:39;2.70;;;1.85;;
39356;SDS011;25077;50.302;18.996;2022-07-29T11:30:49;5.20;;;2.13;;
39356;SDS011;25077;50.302;18.996;2022-07-29T11:33:51;4.05;;;1.83;;
39356;SDS011;25077;50.302;18.996;2022-07-29T11:40:22;7.97;;;2.00;;
39356;SDS011;25077;50.302;18.996;2022-07-29T11:46:50;3.50;;;1.98;;
39356;SDS011;25077;50.302;18.996;2022-07-29T11:49:53;5.15;;;1.92;;
39356;SDS011;25077;50.302;18.996;2022-07-29T11:52:56;3.47;;;2.40;;
39356;SDS011;25077;50.302;18.996;2022-07-29T11:55:59;4.45;;;2.20;;
39356;SDS011;25077;50.302;18.996;2022-07-29T11:59:05;6.20;;;2.13;;
39356;SDS011;25077;50.302;18.996;2022-07-29T12:02:11;4.15;;;2.17;;
39356;SDS011;25077;50.302;18.996;2022-07-29T12:05:13;5.20;;;3.13;;
39356;SDS011;25077;50.302;18.996;2022-07-29T12:08:16;6.47;;;1.90;;
39356;SDS011;25077;50.302;18.996;2022-07-29T12:11:20;15.70;;;7.65;;
39356;SDS011;25077;50.302;18.996;2022-07-29T12:14:25;7.63;;;3.92;;
39356;SDS011;25077;50.302;18.996;2022-07-29T12:17:30;3.63;;;2.25;;
39356;SDS011;25077;50.302;18.996;2022-07-29T12:20:33;6.10;;;2.28;;
39356;SDS011;25077;50.302;18.996;2022-07-29T12:23:35;5.03;;;2.05;;
39356;SDS011;25077;50.302;18.996;2022-07-29T12:26:48;5.38;;;3.10;;
39356;SDS011;25077;50.302;18.996;2022-07-29T12:29:56;5.07;;;2.80;;
39356;SDS011;25077;50.302;18.996;2022-07-29T12:33:01;3.25;;;2.50;;
39356;SDS011;25077;50.302;18.996;2022-07-29T12:36:03;3.83;;;2.30;;
39356;SDS011;25077;50.302;18.996;2022-07-29T12:39:05;5.63;;;2.10;;
39356;SDS011;25077;50.302;18.996;2022-07-29T12:42:11;6.18;;;3.45;;
39356;SDS011;25077;50.302;18.996;2022-07-29T12:45:13;2.55;;;1.90;;
39356;SDS011;25077;50.302;18.996;2022-07-29T12:48:22;2.25;;;1.92;;
39356;SDS011;25077;50.302;18.996;2022-07-29T12:51:35;4.38;;;2.60;;
39356;SDS011;25077;50.302;18.996;2022-07-29T12:54:46;7.05;;;2.42;;
39356;SDS011;25077;50.302;18.996;2022-07-29T12:57:48;6.03;;;2.63;;
39356;SDS011;25077;50.302;18.996;2022-07-29T13:00:58;6.00;;;2.67;;
39356;SDS011;25077;50.302;18.996;2022-07-29T13:04:10;5.22;;;2.22;;
39356;SDS011;25077;50.302;18.996;2022-07-29T13:07:12;3.42;;;2.30;;
39356;SDS011;25077;50.302;18.996;2022-07-29T13:10:15;5.97;;;2.20;;
39356;SDS011;25077;50.302;18.996;2022-07-29T13:13:18;5.22;;;2.13;;
39356;SDS011;25077;50.302;18.996;2022-07-29T13:16:20;7.00;;;2.35;;
39356;SDS011;25077;50.302;18.996;2022-07-29T13:19:33;5.55;;;2.17;;
39356;SDS011;25077;50.302;18.996;2022-07-29T13:22:36;3.60;;;2.05;;
39356;SDS011;25077;50.302;18.996;2022-07-29T13:25:38;8.93;;;3.00;;
39356;SDS011;25077;50.302;18.996;2022-07-29T13:28:41;4.70;;;2.63;;
39356;SDS011;25077;50.302;18.996;2022-07-29T13:31:45;3.40;;;1.70;;
39356;SDS011;25077;50.302;18.996;2022-07-29T13:34:48;9.27;;;2.17;;
39356;SDS011;25077;50.302;18.996;2022-07-29T13:37:50;4.30;;;1.98;;
39356;SDS011;25077;50.302;18.996;2022-07-29T13:40:53;7.05;;;2.20;;
39356;SDS011;25077;50.302;18.996;2022-07-29T13:43:55;5.82;;;2.15;;
39356;SDS011;25077;50.302;18.996;2022-07-29T13:46:57;5.97;;;2.10;;
39356;SDS011;25077;50.302;18.996;2022-07-29T13:50:01;6.68;;;2.75;;
39356;SDS011;25077;50.302;18.996;2022-07-29T13:53:04;3.22;;;1.90;;
39356;SDS011;25077;50.302;18.996;2022-07-29T13:56:06;6.22;;;1.90;;
39356;SDS011;25077;50.302;18.996;2022-07-29T13:59:08;3.10;;;1.90;;
39356;SDS011;25077;50.302;18.996;2022-07-29T14:02:10;5.25;;;1.67;;
39356;SDS011;25077;50.302;18.996;2022-07-29T14:05:15;5.35;;;1.98;;
39356;SDS011;25077;50.302;18.996;2022-07-29T14:08:17;5.43;;;1.90;;
39356;SDS011;25077;50.302;18.996;2022-07-29T14:11:20;7.18;;;1.83;;
39356;SDS011;25077;50.302;18.996;2022-07-29T14:14:22;4.78;;;2.30;;
39356;SDS011;25077;50.302;18.996;2022-07-29T14:17:24;4.60;;;1.88;;
39356;SDS011;25077;50.302;18.996;2022-07-29T14:20:28;7.90;;;2.22;;
39356;SDS011;25077;50.302;18.996;2022-07-29T14:23:30;2.97;;;2.17;;
39356;SDS011;25077;50.302;18.996;2022-07-29T14:26:32;4.60;;;2.13;;
39356;SDS011;25077;50.302;18.996;2022-07-29T14:29:35;4.68;;;2.03;;
39356;SDS011;25077;50.302;18.996;2022-07-29T14:32:37;15.40;;;2.42;;
39356;SDS011;25077;50.302;18.996;2022-07-29T14:35:40;3.78;;;2.47;;
39356;SDS011;25077;50.302;18.996;2022-07-29T14:38:42;3.33;;;2.03;;
39356;SDS011;25077;50.302;18.996;2022-07-29T14:41:44;2.38;;;2.00;;
39356;SDS011;25077;50.302;18.996;2022-07-29T14:44:46;4.93;;;2.42;;
39356;SDS011;25077;50.302;18.996;2022-07-29T14:47:49;3.17;;;2.30;;
39356;SDS011;25077;50.302;18.996;2022-07-29T14:50:53;5.68;;;2.03;;
39356;SDS011;25077;50.302;18.996;2022-07-29T14:53:56;5.22;;;1.80;;
39356;SDS011;25077;50.302;18.996;2022-07-29T14:56:59;4.05;;;2.20;;
39356;SDS011;25077;50.302;18.996;2022-07-29T15:00:01;4.35;;;2.40;;
39356;SDS011;25077;50.302;18.996;2022-07-29T15:03:04;4.95;;;2.35;;
39356;SDS011;25077;50.302;18.996;2022-07-29T15:06:07;9.77;;;2.55;;
39356;SDS011;25077;50.302;18.996;2022-07-29T15:09:10;2.75;;;2.00;;
39356;SDS011;25077;50.302;18.996;2022-07-29T15:12:12;4.60;;;2.15;;
39356;SDS011;25077;50.302;18.996;2022-07-29T15:15:14;2.80;;;2.00;;
39356;SDS011;25077;50.302;18.996;2022-07-29T15:18:16;5.32;;;2.10;;
39356;SDS011;25077;50.302;18.996;2022-07-29T15:21:19;5.78;;;2.53;;
39356;SDS011;25077;50.302;18.996;2022-07-29T15:24:21;6.57;;;2.28;;
39356;SDS011;25077;50.302;18.996;2022-07-29T15:27:23;2.17;;;1.83;;
39356;SDS011;25077;50.302;18.996;2022-07-29T15:30:25;4.10;;;2.45;;
39356;SDS011;25077;50.302;18.996;2022-07-29T15:33:27;4.50;;;2.25;;
39356;SDS011;25077;50.302;18.996;2022-07-29T15:36:31;5.15;;;2.30;;
39356;SDS011;25077;50.302;18.996;2022-07-29T15:39:33;2.72;;;2.10;;
39356;SDS011;25077;50.302;18.996;2022-07-29T15:42:35;8.50;;;2.40;;
39356;SDS011;25077;50.302;18.996;2022-07-29T15:45:37;15.90;;;2.97;;
39356;SDS011;25077;50.302;18.996;2022-07-29T15:48:41;5.30;;;2.53;;
39356;SDS011;25077;50.302;18.996;2022-07-29T15:51:44;8.30;;;2.70;;
39356;SDS011;25077;50.302;18.996;2022-07-29T15:54:46;7.65;;;2.85;;
39356;SDS011;25077;50.302;18.996;2022-07-29T15:57:48;4.32;;;2.30;;
39356;SDS011;25077;50.302;18.996;2022-07-29T16:00:50;5.35;;;2.20;;
39356;SDS011;25077;50.302;18.996;2022-07-29T16:03:52;5.30;;;2.42;;
39356;SDS011;25077;50.302;18.996;2022-07-29T16:06:55;6.82;;;2.20;;
39356;SDS011;25077;50.302;18.996;2022-07-29T16:09:58;5.90;;;2.53;;
39356;SDS011;25077;50.302;18.996;2022-07-29T16:13:00;5.38;;;2.30;;
39356;SDS011;25077;50.302;18.996;2022-07-29T16:16:02;4.45;;;2.25;;
39356;SDS011;25077;50.302;18.996;2022-07-29T16:19:04;9.20;;;2.70;;
39356;SDS011;25077;50.302;18.996;2022-07-29T16:22:07;4.80;;;2.25;;
39356;SDS011;25077;50.302;18.996;2022-07-29T16:25:09;3.90;;;2.40;;
39356;SDS011;25077;50.302;18.996;2022-07-29T16:28:11;8.98;;;2.60;;
39356;SDS011;25077;50.302;18.996;2022-07-29T16:31:13;5.43;;;2.47;;
39356;SDS011;25077;50.302;18.996;2022-07-29T16:34:15;6.93;;;2.13;;
39356;SDS011;25077;50.302;18.996;2022-07-29T16:37:18;4.30;;;2.50;;
39356;SDS011;25077;50.302;18.996;2022-07-29T16:40:20;7.55;;;2.53;;
39356;SDS011;25077;50.302;18.996;2022-07-29T16:43:23;8.30;;;2.42;;
39356;SDS011;25077;50.302;18.996;2022-07-29T16:46:25;9.15;;;2.42;;
39356;SDS011;25077;50.302;18.996;2022-07-29T16:49:27;6.82;;;2.72;;
39356;SDS011;25077;50.302;18.996;2022-07-29T16:52:32;8.15;;;2.60;;
39356;SDS011;25077;50.302;18.996;2022-07-29T16:55:34;6.55;;;2.60;;
39356;SDS011;25077;50.302;18.996;2022-07-29T16:58:36;7.03;;;3.30;;
39356;SDS011;25077;50.302;18.996;2022-07-29T17:01:38;6.32;;;3.15;;
39356;SDS011;25077;50.302;18.996;2022-07-29T17:04:40;5.75;;;2.92;;
39356;SDS011;25077;50.302;18.996;2022-07-29T17:07:43;6.10;;;2.97;;
39356;SDS011;25077;50.302;18.996;2022-07-29T17:10:45;3.78;;;2.80;;
39356;SDS011;25077;50.302;18.996;2022-07-29T17:13:47;7.32;;;3.38;;
39356;SDS011;25077;50.302;18.996;2022-07-29T17:16:49;6.95;;;3.10;;
39356;SDS011;25077;50.302;18.996;2022-07-29T17:19:52;7.90;;;3.58;;
39356;SDS011;25077;50.302;18.996;2022-07-29T17:22:55;8.25;;;3.33;;
39356;SDS011;25077;50.302;18.996;2022-07-29T17:25:57;4.68;;;2.88;;
39356;SDS011;25077;50.302;18.996;2022-07-29T17:28:59;4.95;;;3.13;;
39356;SDS011;25077;50.302;18.996;2022-07-29T17:32:01;6.65;;;3.10;;
39356;SDS011;25077;50.302;18.996;2022-07-29T17:35:03;6.30;;;3.30;;
39356;SDS011;25077;50.302;18.996;2022-07-29T17:38:29;4.30;;;2.92;;
39356;SDS011;25077;50.302;18.996;2022-07-29T17:41:31;7.53;;;3.25;;
39356;SDS011;25077;50.302;18.996;2022-07-29T17:44:33;7.97;;;3.50;;
39356;SDS011;25077;50.302;18.996;2022-07-29T17:47:35;6.65;;;3.08;;
39356;SDS011;25077;50.302;18.996;2022-07-29T17:50:37;6.88;;;3.75;;
39356;SDS011;25077;50.302;18.996;2022-07-29T17:53:41;7.93;;;3.88;;
39356;SDS011;25077;50.302;18.996;2022-07-29T17:56:43;6.05;;;3.38;;
39356;SDS011;25077;50.302;18.996;2022-07-29T17:59:45;8.55;;;3.53;;
39356;SDS011;25077;50.302;18.996;2022-07-29T18:02:47;5.35;;;3.20;;
39356;SDS011;25077;50.302;18.996;2022-07-29T18:05:49;5.57;;;3.38;;
39356;SDS011;25077;50.302;18.996;2022-07-29T18:08:52;7.13;;;3.53;;
39356;SDS011;25077;50.302;18.996;2022-07-29T18:11:54;5.35;;;3.47;;
39356;SDS011;25077;50.302;18.996;2022-07-29T18:14:56;6.38;;;4.00;;
39356;SDS011;25077;50.302;18.996;2022-07-29T18:17:58;6.60;;;3.67;;
39356;SDS011;25077;50.302;18.996;2022-07-29T18:21:00;5.25;;;3.45;;
39356;SDS011;25077;50.302;18.996;2022-07-29T18:24:04;7.15;;;3.58;;